createdAt,value
2022-10-18T00:02:03.218Z,13.13
2022-10-18T00:04:33.835Z,13.07
2022-10-18T00:07:02.623Z,12.20
2022-10-18T00:09:33.490Z,13.20
2022-10-18T00:12:03.366Z,12.67
2022-10-18T00:14:32.094Z,13.63
2022-10-18T00:17:00.780Z,12.50
2022-10-18T00:19:29.608Z,13.77
2022-10-18T00:21:58.285Z,14.20
2022-10-18T00:24:26.952Z,14.43
2022-10-18T00:26:55.550Z,14.03
2022-10-18T00:29:53.970Z,15.07
2022-10-18T00:32:23.024Z,14.20
2022-10-18T00:34:51.749Z,15.07
2022-10-18T00:37:20.855Z,14.70
2022-10-18T00:39:49.619Z,15.90
2022-10-18T00:42:20.396Z,14.10
2022-10-18T00:44:52.071Z,14.67
2022-10-18T00:47:30.516Z,14.77
2022-10-18T00:49:58.991Z,15.20
2022-10-18T00:52:39.256Z,14.40
2022-10-18T00:55:09.717Z,15.57
2022-10-18T00:57:40.493Z,14.70
2022-10-18T01:00:10.129Z,15.97
2022-10-18T01:02:39.913Z,16.30
2022-10-18T01:05:09.541Z,15.63
2022-10-18T01:07:52.382Z,15.37
2022-10-18T01:10:40.485Z,15.87
2022-10-18T01:13:25.813Z,15.87
2022-10-18T01:16:25.519Z,15.40
2022-10-18T01:18:59.671Z,16.57
2022-10-18T01:21:36.911Z,16.10
2022-10-18T01:24:28.132Z,15.53
2022-10-18T01:27:20.601Z,17.17
2022-10-18T01:30:04.111Z,17.10
2022-10-18T01:32:35.690Z,16.13
2022-10-18T01:35:07.321Z,16.73
2022-10-18T01:37:37.606Z,16.33
2022-10-18T01:40:08.834Z,15.60
2022-10-18T01:42:37.445Z,15.03
2022-10-18T01:45:08.149Z,14.23
2022-10-18T01:47:37.219Z,16.43
2022-10-18T01:50:07.765Z,15.93
2022-10-18T01:52:36.435Z,14.97
2022-10-18T01:55:05.554Z,14.83
2022-10-18T01:58:07.148Z,14.67
2022-10-18T02:00:42.161Z,14.87
2022-10-18T02:03:25.545Z,13.93
2022-10-18T02:06:12.397Z,13.90
2022-10-18T02:08:49.936Z,14.20
2022-10-18T02:11:19.489Z,14.17
2022-10-18T02:13:51.024Z,14.10
2022-10-18T02:16:22.681Z,14.10
2022-10-18T02:18:59.937Z,14.80
2022-10-18T02:21:30.659Z,14.20
2022-10-18T02:24:02.309Z,13.53
2022-10-18T02:26:31.551Z,13.50
2022-10-18T02:29:00.562Z,13.47
2022-10-18T02:31:42.115Z,12.67
2022-10-18T02:34:13.669Z,12.43
2022-10-18T02:36:45.240Z,12.80
2022-10-18T02:39:16.791Z,12.37
2022-10-18T02:41:45.546Z,11.63
2022-10-18T02:44:16.904Z,11.80
2022-10-18T02:46:46.665Z,12.20
2022-10-18T02:49:15.315Z,11.80
2022-10-18T02:51:43.985Z,11.67
2022-10-18T02:54:12.646Z,11.73
2022-10-18T02:56:41.382Z,11.67
2022-10-18T02:59:10.093Z,10.83
2022-10-18T03:01:38.788Z,11.40
2022-10-18T03:04:07.554Z,10.27
2022-10-18T03:06:36.469Z,11.63
2022-10-18T03:09:06.901Z,11.17
2022-10-18T03:11:35.543Z,10.60
2022-10-18T03:14:04.208Z,11.20
2022-10-18T03:16:34.031Z,11.47
2022-10-18T03:19:02.643Z,11.07
2022-10-18T03:21:31.234Z,10.97
2022-10-18T03:23:59.931Z,10.87
2022-10-18T03:26:28.557Z,10.77
2022-10-18T03:28:57.367Z,10.87
2022-10-18T03:31:26.021Z,10.77
2022-10-18T03:33:54.634Z,11.23
2022-10-18T03:36:23.200Z,11.17
2022-10-18T03:38:51.885Z,10.77
2022-10-18T03:41:20.987Z,11.27
2022-10-18T03:43:51.084Z,10.83
2022-10-18T03:46:20.885Z,11.13
2022-10-18T03:48:49.449Z,10.47
2022-10-18T03:51:18.000Z,11.20
2022-10-18T03:53:46.595Z,11.50
2022-10-18T03:56:17.241Z,11.50
2022-10-18T03:58:45.739Z,10.83
2022-10-18T04:01:14.425Z,10.57
2022-10-18T04:03:43.077Z,12.07
2022-10-18T04:06:11.713Z,12.13
2022-10-18T04:08:40.398Z,11.23
2022-10-18T04:11:10.971Z,11.43
2022-10-18T04:13:39.734Z,12.23
2022-10-18T04:16:08.402Z,11.50
2022-10-18T04:18:37.076Z,11.43
2022-10-18T04:21:05.743Z,11.00
2022-10-18T04:23:37.881Z,11.17
2022-10-18T04:26:04.794Z,10.37
2022-10-18T04:28:34.446Z,10.67
2022-10-18T04:31:03.160Z,12.13
2022-10-18T04:33:31.683Z,10.80
2022-10-18T04:36:02.999Z,12.73
2022-10-18T04:38:31.635Z,12.00
2022-10-18T04:41:00.316Z,12.30
2022-10-18T04:43:28.988Z,12.20
2022-10-18T04:45:57.590Z,12.03
2022-10-18T04:48:26.249Z,11.77
2022-10-18T04:50:54.878Z,11.13
2022-10-18T04:53:23.448Z,10.63
2022-10-18T04:55:52.480Z,11.77
2022-10-18T04:58:21.222Z,12.70
2022-10-18T05:00:50.679Z,11.83
2022-10-18T05:03:19.533Z,12.53
2022-10-18T05:06:01.226Z,12.47
2022-10-18T05:08:18.554Z,12.13
2022-10-18T05:10:47.916Z,13.47
2022-10-18T05:13:18.064Z,12.40
2022-10-18T05:15:48.075Z,12.73
2022-10-18T05:18:16.662Z,13.30
2022-10-18T05:20:45.341Z,12.33
2022-10-18T05:23:14.013Z,11.73
2022-10-18T05:25:45.903Z,12.17
2022-10-18T05:28:38.234Z,11.67
2022-10-18T05:30:45.225Z,11.47
2022-10-18T05:33:13.804Z,12.80
2022-10-18T05:35:42.693Z,11.43
2022-10-18T05:38:11.344Z,12.97
2022-10-18T05:40:40.744Z,13.57
2022-10-18T05:43:09.406Z,13.63
2022-10-18T05:45:38.039Z,19.30
2022-10-18T05:48:07.902Z,18.40
2022-10-18T05:50:39.541Z,20.93
2022-10-18T05:53:11.976Z,17.77
2022-10-18T05:55:37.190Z,18.90
2022-10-18T05:58:05.940Z,20.20
2022-10-18T06:00:34.661Z,19.47
2022-10-18T06:03:03.220Z,23.30
2022-10-18T06:05:31.904Z,25.87
2022-10-18T06:08:00.592Z,25.87
2022-10-18T06:10:29.179Z,23.60
2022-10-18T06:12:57.794Z,24.20
2022-10-18T06:15:26.361Z,23.80
2022-10-18T06:17:55.106Z,22.37
2022-10-18T06:20:23.698Z,23.27
2022-10-18T06:22:55.497Z,22.57
2022-10-18T06:25:24.296Z,20.00
2022-10-18T06:27:52.984Z,17.77
2022-10-18T06:30:21.575Z,16.70
2022-10-18T06:32:53.024Z,16.17
2022-10-18T06:35:21.635Z,16.47
2022-10-18T06:37:50.228Z,15.20
2022-10-18T06:40:20.037Z,15.87
2022-10-18T06:43:00.018Z,15.77
2022-10-18T06:45:20.605Z,15.23
2022-10-18T06:47:52.009Z,17.57
2022-10-18T06:50:20.580Z,16.67
2022-10-18T06:52:50.718Z,17.07
2022-10-18T06:55:19.383Z,15.43
2022-10-18T06:57:48.139Z,15.87
2022-10-18T07:00:16.916Z,14.60
2022-10-18T07:02:45.484Z,14.53
2022-10-18T07:05:14.159Z,13.30
2022-10-18T07:07:42.860Z,13.50
2022-10-18T07:10:13.097Z,14.83
2022-10-18T07:12:41.910Z,17.70
2022-10-18T07:15:11.097Z,16.47
2022-10-18T07:17:39.731Z,17.43
2022-10-18T07:20:08.724Z,18.00
2022-10-18T07:22:38.272Z,18.00
2022-10-18T07:25:07.506Z,17.70
2022-10-18T07:27:43.840Z,17.23
2022-10-18T07:30:15.647Z,18.33
2022-10-18T07:32:44.338Z,17.37
2022-10-18T07:35:13.150Z,17.50
2022-10-18T07:37:41.803Z,17.90
2022-10-18T07:40:12.474Z,17.90
2022-10-18T07:42:41.113Z,22.27
2022-10-18T07:45:11.910Z,18.30
2022-10-18T07:47:42.298Z,23.17
2022-10-18T07:50:16.637Z,17.67
2022-10-18T07:52:46.266Z,19.10
2022-10-18T07:55:15.154Z,18.57
2022-10-18T07:57:43.915Z,16.30
2022-10-18T08:00:14.351Z,17.67
2022-10-18T08:05:55.169Z,17.67
2022-10-18T08:08:29.154Z,17.10
2022-10-18T08:10:59.446Z,15.33
2022-10-18T08:13:28.174Z,15.48
2022-10-18T08:16:01.686Z,15.83
2022-10-18T08:18:31.955Z,14.30
2022-10-18T08:21:05.275Z,13.93
2022-10-18T08:23:34.371Z,14.95
2022-10-18T08:26:05.228Z,15.45
2022-10-18T08:28:35.804Z,15.20
2022-10-18T08:31:09.923Z,14.73
2022-10-18T08:33:39.655Z,15.77
2022-10-18T08:36:10.897Z,14.87
2022-10-18T08:38:41.428Z,15.18
2022-10-18T08:41:40.135Z,14.25
2022-10-18T08:44:24.161Z,14.55
2022-10-18T08:46:55.811Z,14.28
2022-10-18T08:49:47.083Z,12.88
2022-10-18T08:52:21.855Z,13.85
2022-10-18T08:55:09.194Z,13.80
2022-10-18T08:57:39.438Z,14.30
2022-10-18T09:00:12.579Z,14.78
2022-10-18T09:03:01.056Z,14.58
2022-10-18T09:05:36.183Z,15.08
2022-10-18T09:08:19.819Z,14.78
2022-10-18T09:11:10.991Z,12.25
2022-10-18T09:14:06.234Z,11.73
2022-10-18T09:16:40.828Z,11.53
2022-10-18T09:19:15.337Z,10.58
2022-10-18T09:21:56.154Z,10.30
2022-10-18T09:24:30.452Z,10.45
2022-10-18T09:27:02.271Z,10.38
2022-10-18T09:29:54.702Z,9.68
2022-10-18T09:32:41.533Z,9.80
2022-10-18T09:35:25.438Z,9.43
2022-10-18T09:37:59.896Z,8.73
2022-10-18T09:40:34.446Z,7.95
2022-10-18T09:43:14.986Z,8.08
2022-10-18T09:45:46.487Z,8.50
2022-10-18T09:48:24.297Z,8.93
2022-10-18T09:51:13.411Z,8.35
2022-10-18T09:54:04.935Z,7.90
2022-10-18T09:56:39.449Z,7.70
2022-10-18T09:59:11.406Z,6.92
2022-10-18T10:01:41.919Z,5.65
2022-10-18T10:04:12.444Z,5.22
2022-10-18T10:06:44.176Z,4.78
2022-10-18T10:09:18.951Z,5.65
2022-10-18T10:11:53.471Z,4.80
2022-10-18T10:14:28.287Z,4.40
2022-10-18T10:17:05.991Z,3.42
2022-10-18T10:19:40.526Z,3.45
2022-10-18T10:22:15.665Z,3.60
2022-10-18T10:28:49.750Z,3.10
2022-10-18T10:31:30.153Z,2.83
2022-10-18T10:34:17.788Z,2.95
2022-10-18T10:36:55.241Z,2.77
2022-10-18T10:39:28.513Z,3.27
2022-10-18T10:42:01.897Z,2.80
2022-10-18T10:44:33.486Z,2.67
2022-10-18T10:47:02.203Z,2.77
2022-10-18T10:49:42.617Z,2.52
2022-10-18T10:52:27.265Z,2.30
2022-10-18T10:55:05.882Z,3.05
2022-10-18T10:57:28.958Z,3.00
2022-10-18T11:00:00.347Z,4.30
2022-10-18T11:02:36.793Z,3.55
2022-10-18T11:05:27.104Z,3.92
2022-10-18T11:08:04.006Z,2.42
2022-10-18T11:10:38.681Z,2.25
2022-10-18T11:13:26.500Z,3.42
2022-10-18T11:15:59.453Z,2.83
2022-10-18T11:18:48.165Z,2.17
2022-10-18T11:21:19.923Z,1.80
2022-10-18T11:23:48.620Z,2.60
2022-10-18T11:26:29.236Z,2.98
2022-10-18T11:29:23.865Z,2.58
2022-10-18T11:31:55.495Z,3.17
2022-10-18T11:34:29.855Z,2.00
2022-10-18T11:37:26.287Z,2.42
2022-10-18T11:40:00.089Z,2.47
2022-10-18T11:42:43.769Z,1.77
2022-10-18T11:45:18.192Z,2.00
2022-10-18T11:47:52.315Z,2.00
2022-10-18T11:50:32.318Z,1.77
2022-10-18T11:56:24.615Z,1.70
2022-10-18T11:59:15.393Z,1.50
2022-10-18T12:02:04.538Z,2.25
2022-10-18T12:04:53.059Z,1.75
2022-10-18T12:07:27.731Z,1.42
2022-10-18T12:10:03.410Z,1.50
2022-10-18T12:12:56.076Z,1.30
2022-10-18T12:15:28.973Z,1.45
2022-10-18T12:18:03.470Z,1.30
2022-10-18T12:20:38.046Z,1.30
2022-10-18T12:23:21.025Z,1.05
2022-10-18T12:25:57.989Z,1.20
2022-10-18T12:31:54.315Z,1.60
2022-10-18T12:34:27.557Z,1.32
2022-10-18T12:37:19.098Z,1.27
2022-10-18T12:40:11.465Z,1.10
2022-10-18T12:42:39.906Z,1.27
2022-10-18T12:45:17.075Z,1.30
2022-10-18T12:47:50.105Z,1.12
2022-10-18T12:50:35.131Z,1.20
2022-10-18T12:53:07.036Z,1.42
2022-10-18T12:55:38.918Z,1.10
2022-10-18T12:58:13.848Z,1.30
2022-10-18T13:00:46.044Z,1.35
2022-10-18T13:03:21.584Z,1.10
2022-10-18T13:05:56.557Z,1.00
2022-10-18T13:08:34.690Z,1.30
2022-10-18T13:11:12.126Z,1.75
2022-10-18T13:13:50.950Z,1.62
2022-10-18T13:16:32.794Z,1.05
2022-10-18T13:19:23.214Z,1.47
2022-10-18T13:22:00.504Z,1.22
2022-10-18T13:24:47.110Z,1.27
2022-10-18T13:27:42.414Z,1.20
2022-10-18T13:30:13.070Z,1.65
2022-10-18T13:33:13.491Z,1.20
2022-10-18T13:35:48.939Z,1.25
2022-10-18T13:38:41.542Z,1.25
2022-10-18T13:41:16.486Z,1.07
2022-10-18T13:43:52.968Z,1.22
2022-10-18T13:46:29.544Z,1.20
2022-10-18T13:49:38.092Z,1.07
2022-10-18T13:52:28.952Z,1.20
2022-10-18T13:55:22.857Z,1.20
2022-10-18T13:58:05.639Z,0.90
2022-10-18T14:00:56.754Z,1.12
2022-10-18T14:03:58.710Z,1.45
2022-10-18T14:06:30.263Z,1.42
2022-10-18T14:09:26.400Z,1.60
2022-10-18T14:11:55.461Z,2.15
2022-10-18T14:14:38.365Z,1.40
2022-10-18T14:17:18.628Z,1.00
2022-10-18T14:20:06.228Z,5.20
2022-10-18T14:22:41.187Z,2.55
2022-10-18T14:25:35.622Z,2.98
2022-10-18T14:28:27.410Z,2.25
2022-10-18T14:31:09.174Z,2.20
2022-10-18T14:33:41.537Z,1.50
2022-10-18T14:36:16.020Z,2.02
2022-10-18T14:38:53.899Z,2.05
2022-10-18T14:41:28.516Z,1.70
2022-10-18T14:44:17.576Z,1.45
2022-10-18T14:46:51.780Z,1.42
2022-10-18T14:49:22.502Z,1.30
2022-10-18T14:51:56.992Z,1.80
2022-10-18T14:54:36.393Z,1.60
2022-10-18T14:57:08.534Z,2.05
2022-10-18T14:59:46.328Z,1.87
2022-10-18T15:02:24.237Z,2.20
2022-10-18T15:05:09.873Z,2.05
2022-10-18T15:07:49.462Z,2.20
2022-10-18T15:10:27.549Z,2.37
2022-10-18T15:13:10.929Z,2.10
2022-10-18T15:15:36.031Z,3.10
2022-10-18T15:18:08.787Z,4.70
2022-10-18T15:20:43.543Z,4.58
2022-10-18T15:23:27.126Z,5.10
2022-10-18T15:26:05.047Z,9.58
2022-10-18T15:28:36.708Z,5.85
2022-10-18T15:31:06.992Z,5.25
2022-10-18T15:33:35.916Z,5.45
2022-10-18T15:36:17.683Z,5.00
2022-10-18T15:38:49.194Z,7.10
2022-10-18T15:41:42.394Z,10.28
2022-10-18T15:44:20.015Z,6.55
2022-10-18T15:46:49.734Z,5.70
2022-10-18T15:49:54.582Z,5.30
2022-10-18T15:52:27.906Z,4.80
2022-10-18T15:54:57.357Z,4.12
2022-10-18T15:57:29.124Z,4.42
2022-10-18T16:00:02.776Z,4.55
2022-10-18T16:02:32.015Z,4.92
2022-10-18T16:05:03.577Z,4.85
2022-10-18T16:07:32.478Z,6.05
2022-10-18T16:10:01.436Z,6.17
2022-10-18T16:12:29.981Z,5.70
2022-10-18T16:15:05.134Z,6.00
2022-10-18T16:18:09.266Z,5.95
2022-10-18T16:47:49.482Z,8.43
2022-10-18T16:50:22.050Z,8.10
2022-10-18T16:52:51.266Z,8.70
2022-10-18T16:55:27.793Z,8.20
2022-10-18T16:58:09.052Z,9.30
2022-10-18T17:00:43.283Z,12.23
2022-10-18T17:03:16.450Z,9.60
2022-10-18T17:05:48.092Z,10.70
2022-10-18T17:08:23.128Z,10.05
2022-10-18T17:10:55.304Z,10.38
2022-10-18T17:13:25.276Z,11.00
2022-10-18T17:15:55.682Z,11.20
2022-10-18T17:18:32.959Z,10.48
2022-10-18T17:21:03.595Z,10.32
2022-10-18T17:23:39.008Z,11.45
2022-10-18T17:26:45.561Z,10.38
2022-10-18T17:35:26.495Z,11.85
2022-10-18T17:37:55.275Z,11.53
2022-10-18T17:40:25.626Z,9.85
2022-10-18T17:46:20.597Z,10.20
2022-10-18T17:52:07.153Z,8.53
2022-10-18T17:54:36.041Z,8.40
2022-10-18T18:00:39.244Z,9.28
2022-10-18T18:03:06.424Z,9.68
2022-10-18T18:05:42.440Z,9.45
2022-10-18T18:12:16.593Z,11.23
2022-10-18T18:14:51.763Z,10.03
2022-10-18T18:20:32.399Z,12.58
2022-10-18T18:23:26.411Z,11.68
2022-10-18T18:26:03.972Z,10.63
2022-10-18T18:28:33.172Z,12.53
2022-10-18T19:24:06.138Z,13.00
2022-10-18T19:26:42.610Z,13.60
2022-10-18T19:29:14.629Z,12.47
2022-10-18T19:31:43.874Z,14.27
2022-10-18T19:34:14.350Z,13.07
2022-10-18T19:36:45.224Z,12.20
2022-10-18T19:39:18.425Z,11.47
2022-10-18T19:41:50.765Z,12.50
2022-10-18T19:44:20.458Z,12.30
2022-10-18T19:46:50.296Z,11.97
2022-10-18T19:49:19.081Z,16.07
2022-10-18T19:51:47.950Z,12.37
2022-10-18T20:11:25.861Z,12.90
2022-10-18T20:13:55.119Z,12.60
2022-10-18T20:16:28.400Z,12.20
2022-10-18T21:04:38.803Z,9.50
2022-10-18T21:07:08.296Z,8.37
2022-10-18T21:09:36.881Z,8.30
2022-10-18T21:12:07.285Z,8.43
2022-10-18T21:14:35.858Z,8.83
2022-10-18T21:17:04.549Z,8.17
2022-10-18T21:19:33.344Z,7.57
2022-10-18T21:24:59.208Z,6.87
2022-10-18T21:27:27.927Z,6.63
2022-10-18T21:29:56.538Z,6.50
2022-10-18T21:32:25.225Z,6.37
2022-10-18T21:34:53.820Z,5.80
2022-10-18T21:37:22.381Z,5.70
2022-10-18T21:39:51.031Z,5.23
2022-10-18T21:42:22.150Z,5.40
2022-10-18T21:44:53.255Z,4.20
2022-10-18T21:47:21.830Z,4.20
2022-10-18T21:49:54.082Z,3.97
2022-10-18T21:52:22.692Z,4.63
2022-10-18T21:54:51.217Z,4.20
2022-10-18T21:57:21.206Z,4.20
2022-10-18T21:59:49.877Z,4.00
2022-10-18T22:02:18.384Z,4.30
2022-10-18T22:04:47.033Z,4.07
2022-10-18T22:07:15.652Z,3.83
2022-10-18T22:09:44.208Z,4.57
2022-10-18T22:12:12.855Z,4.37
2022-10-18T22:14:41.440Z,4.30
2022-10-18T22:17:10.011Z,4.83
2022-10-18T22:19:38.783Z,4.67
2022-10-18T22:22:07.356Z,5.30
2022-10-18T22:27:04.777Z,4.93
2022-10-18T22:29:33.443Z,5.23
2022-10-18T22:32:02.031Z,5.27
2022-10-18T22:34:30.706Z,5.33
2022-10-18T22:36:59.292Z,4.80
2022-10-18T22:39:27.786Z,6.03
2022-10-18T22:41:57.367Z,5.73
2022-10-18T22:44:30.511Z,6.10
2022-10-18T22:46:59.070Z,6.33
2022-10-18T22:49:27.689Z,6.07
2022-10-18T22:51:56.298Z,6.10
2022-10-18T22:54:24.913Z,6.67
2022-10-18T22:56:53.502Z,6.40
2022-10-18T22:59:22.173Z,7.30
2022-10-18T23:01:50.832Z,7.27
2022-10-18T23:04:19.486Z,7.73
2022-10-18T23:06:48.115Z,7.07
2022-10-18T23:09:16.633Z,7.70
2022-10-18T23:11:47.087Z,9.13
2022-10-18T23:14:15.658Z,7.83
2022-10-18T23:16:44.872Z,8.57
2022-10-18T23:19:16.048Z,8.77
2022-10-18T23:21:44.680Z,8.57
2022-10-18T23:24:13.366Z,9.03
2022-10-18T23:26:42.001Z,8.53
2022-10-18T23:29:10.812Z,8.77
2022-10-18T23:31:40.993Z,9.63
2022-10-18T23:34:10.550Z,8.73
2022-10-18T23:36:39.247Z,9.23
2022-10-18T23:39:07.872Z,8.70
2022-10-18T23:41:38.755Z,9.50
2022-10-18T23:44:08.570Z,9.30
2022-10-18T23:46:37.211Z,8.63
2022-10-18T23:49:05.957Z,9.30
2022-10-18T23:51:34.542Z,9.30
2022-10-18T23:54:03.121Z,9.50
2022-10-18T23:56:31.727Z,9.80
2022-10-18T23:59:00.279Z,9.57
